createdAt,value
2024-01-05T00:01:28.874Z,3.93
2024-01-05T00:03:55.382Z,4.22
2024-01-05T00:06:21.842Z,4.51
2024-01-05T00:08:48.302Z,4.75
2024-01-05T00:11:14.618Z,4.94
2024-01-05T00:13:40.892Z,5.06
2024-01-05T00:16:07.166Z,4.65
2024-01-05T00:18:33.554Z,4.76
2024-01-05T00:20:59.913Z,4.53
2024-01-05T00:23:26.206Z,4.42
2024-01-05T00:25:52.490Z,4.42
2024-01-05T00:28:18.798Z,3.76
2024-01-05T00:30:45.105Z,3.11
2024-01-05T00:33:11.531Z,3.51
2024-01-05T00:35:37.912Z,3.97
2024-01-05T00:38:04.188Z,4.33
2024-01-05T00:40:30.456Z,4.16
2024-01-05T00:42:56.716Z,4.32
2024-01-05T00:45:23.009Z,4.81
2024-01-05T00:47:49.602Z,4.87
2024-01-05T00:50:15.981Z,4.75
2024-01-05T00:52:42.268Z,4.84
2024-01-05T00:55:08.550Z,4.91
2024-01-05T00:57:34.945Z,4.77
2024-01-05T01:00:01.272Z,4.87
2024-01-05T01:02:27.578Z,5.02
2024-01-05T01:04:53.969Z,4.94
2024-01-05T01:07:20.258Z,4.85
2024-01-05T01:09:46.550Z,4.44
2024-01-05T01:12:12.869Z,4.60
2024-01-05T01:14:39.143Z,4.76
2024-01-05T01:17:05.396Z,4.67
2024-01-05T01:19:31.798Z,4.53
2024-01-05T01:21:58.193Z,4.57
2024-01-05T01:24:24.491Z,4.11
2024-01-05T01:26:50.810Z,3.98
2024-01-05T01:29:17.111Z,3.49
2024-01-05T01:31:43.374Z,3.69
2024-01-05T01:34:09.706Z,3.69
2024-01-05T01:36:36.230Z,3.70
2024-01-05T01:39:02.605Z,4.20
2024-01-05T01:41:28.981Z,4.70
2024-01-05T01:43:55.252Z,4.13
2024-01-05T01:46:21.635Z,4.19
2024-01-05T01:48:48.194Z,4.43
2024-01-05T01:51:14.732Z,4.16
2024-01-05T01:53:41.063Z,4.44
2024-01-05T01:56:07.337Z,5.02
2024-01-05T01:58:33.625Z,4.27
2024-01-05T02:00:59.913Z,4.61
2024-01-05T02:03:26.348Z,4.88
2024-01-05T02:05:52.769Z,4.36
2024-01-05T02:08:19.129Z,4.75
2024-01-05T02:10:45.407Z,4.83
2024-01-05T02:13:11.736Z,4.69
2024-01-05T02:15:38.083Z,4.97
2024-01-05T02:18:04.566Z,4.78
2024-01-05T02:20:30.893Z,4.46
2024-01-05T02:22:57.183Z,4.47
2024-01-05T02:25:23.475Z,4.95
2024-01-05T02:27:49.803Z,5.08
2024-01-05T02:30:16.223Z,5.04
2024-01-05T02:35:40.321Z,4.89
2024-01-05T02:38:06.585Z,4.96
2024-01-05T02:40:32.893Z,5.04
2024-01-05T02:42:59.227Z,5.15
2024-01-05T02:45:25.636Z,5.22
2024-01-05T02:47:52.120Z,5.35
2024-01-05T02:50:18.482Z,5.40
2024-01-05T02:52:44.782Z,5.18
2024-01-05T02:55:11.091Z,4.98
2024-01-05T02:57:37.396Z,5.18
2024-01-05T03:00:03.805Z,5.26
2024-01-05T03:02:30.146Z,5.28
2024-01-05T03:04:56.485Z,5.07
2024-01-05T03:07:22.765Z,4.77
2024-01-05T03:09:49.042Z,4.66
2024-01-05T03:12:15.330Z,4.40
2024-01-05T03:14:41.719Z,3.72
2024-01-05T03:17:07.985Z,3.98
2024-01-05T03:19:34.386Z,4.17
2024-01-05T03:22:00.713Z,3.78
2024-01-05T03:24:27.069Z,4.01
2024-01-05T03:26:53.404Z,4.08
2024-01-05T03:29:19.701Z,3.74
2024-01-05T03:31:45.973Z,3.46
2024-01-05T03:34:12.341Z,3.78
2024-01-05T03:36:38.734Z,3.54
2024-01-05T03:39:05.069Z,3.81
2024-01-05T03:41:31.392Z,3.81
2024-01-05T03:43:57.665Z,4.00
2024-01-05T03:46:23.945Z,4.41
2024-01-05T03:48:50.350Z,4.80
2024-01-05T03:51:16.792Z,5.10
2024-01-05T03:53:43.082Z,5.08
2024-01-05T03:56:09.348Z,5.18
2024-01-05T03:58:35.609Z,5.52
2024-01-05T04:01:02.021Z,5.63
2024-01-05T04:03:28.397Z,5.74
2024-01-05T04:05:54.805Z,5.26
2024-01-05T04:08:21.156Z,5.02
2024-01-05T04:10:47.435Z,5.25
2024-01-05T04:13:33.692Z,5.71
2024-01-05T04:15:59.982Z,5.73
2024-01-05T04:18:26.369Z,5.59
2024-01-05T04:20:52.746Z,5.70
2024-01-05T04:23:19.023Z,5.67
2024-01-05T04:25:45.453Z,5.78
2024-01-05T04:28:11.727Z,5.75
2024-01-05T04:30:38.102Z,5.57
2024-01-05T04:33:04.607Z,5.36
2024-01-05T04:35:31.014Z,5.19
2024-01-05T04:37:57.308Z,4.76
2024-01-05T04:40:23.615Z,5.07
2024-01-05T04:42:49.891Z,5.21
2024-01-05T04:45:16.195Z,5.38
2024-01-05T04:47:42.547Z,5.55
2024-01-05T04:50:08.842Z,5.74
2024-01-05T04:52:35.106Z,5.55
2024-01-05T04:55:01.395Z,5.48
2024-01-05T04:57:27.776Z,5.82
2024-01-05T04:59:54.112Z,5.85
2024-01-05T05:02:20.409Z,5.83
2024-01-05T05:04:48.759Z,5.44
2024-01-05T05:07:15.305Z,5.11
2024-01-05T05:09:41.644Z,5.02
2024-01-05T05:12:07.980Z,4.49
2024-01-05T05:14:34.270Z,4.96
2024-01-05T05:17:00.555Z,4.87
2024-01-05T05:19:26.920Z,5.30
2024-01-05T05:21:53.330Z,5.60
2024-01-05T05:24:19.642Z,5.60
2024-01-05T05:26:45.934Z,4.88
2024-01-05T05:29:12.226Z,4.99
2024-01-05T05:31:38.544Z,5.44
2024-01-05T05:34:04.932Z,5.62
2024-01-05T05:36:31.275Z,5.83
2024-01-05T05:38:57.569Z,6.00
2024-01-05T05:41:23.879Z,6.08
2024-01-05T05:43:50.175Z,5.94
2024-01-05T05:46:16.461Z,6.08
2024-01-05T05:48:42.864Z,6.12
2024-01-05T05:51:09.270Z,6.08
2024-01-05T05:53:35.597Z,5.98
2024-01-05T05:56:01.873Z,5.88
2024-01-05T05:58:28.149Z,5.86
2024-01-05T06:00:54.585Z,5.99
2024-01-05T06:03:20.974Z,5.80
2024-01-05T06:05:47.359Z,5.43
2024-01-05T06:08:13.752Z,5.68
2024-01-05T06:10:40.015Z,5.94
2024-01-05T06:13:06.304Z,6.06
2024-01-05T06:15:33.443Z,6.08
2024-01-05T06:17:59.918Z,6.04
2024-01-05T06:20:26.282Z,6.00
2024-01-05T06:22:52.569Z,5.96
2024-01-05T06:25:18.841Z,5.58
2024-01-05T06:27:45.171Z,5.08
2024-01-05T06:30:11.619Z,4.81
2024-01-05T06:32:37.989Z,4.55
2024-01-05T06:35:04.286Z,4.77
2024-01-05T06:37:30.573Z,4.17
2024-01-05T06:39:56.853Z,4.50
2024-01-05T06:42:23.156Z,4.57
2024-01-05T06:44:49.589Z,5.10
2024-01-05T06:47:15.921Z,5.39
2024-01-05T06:49:42.387Z,5.28
2024-01-05T06:52:08.905Z,5.56
2024-01-05T06:54:35.224Z,5.65
2024-01-05T06:57:01.556Z,5.41
2024-01-05T06:59:27.947Z,5.65
2024-01-05T07:01:54.300Z,5.08
2024-01-05T07:04:20.584Z,4.65
2024-01-05T07:06:46.851Z,4.75
2024-01-05T07:09:13.169Z,4.60
2024-01-05T07:11:39.432Z,4.60
2024-01-05T07:14:05.701Z,4.85
2024-01-05T07:16:31.976Z,5.14
2024-01-05T07:18:58.361Z,4.85
2024-01-05T07:21:24.701Z,4.83
2024-01-05T07:23:50.988Z,4.88
2024-01-05T07:26:17.262Z,4.75
2024-01-05T07:28:43.560Z,4.94
2024-01-05T07:31:09.984Z,5.02
2024-01-05T07:33:36.393Z,5.07
2024-01-05T07:36:02.771Z,5.21
2024-01-05T07:38:29.111Z,5.38
2024-01-05T07:40:55.372Z,5.58
2024-01-05T07:43:21.628Z,5.86
2024-01-05T07:45:48.503Z,6.23
2024-01-05T07:48:15.964Z,6.37
2024-01-05T07:50:42.308Z,6.63
2024-01-05T07:53:08.635Z,6.72
2024-01-05T07:55:34.901Z,6.78
2024-01-05T07:58:01.176Z,6.62
2024-01-05T08:00:27.594Z,6.67
2024-01-05T08:02:54.001Z,6.64
2024-01-05T08:05:21.163Z,6.68
2024-01-05T08:07:47.439Z,6.67
2024-01-05T08:10:13.716Z,6.34
2024-01-05T08:12:40.039Z,6.50
2024-01-05T08:15:06.436Z,6.65
2024-01-05T08:17:32.771Z,6.66
2024-01-05T08:19:59.125Z,6.26
2024-01-05T08:22:25.444Z,6.45
2024-01-05T08:24:51.704Z,6.65
2024-01-05T08:27:17.997Z,6.71
2024-01-05T08:29:44.302Z,6.84
2024-01-05T08:32:10.641Z,6.91
2024-01-05T08:34:37.076Z,6.95
2024-01-05T08:37:03.394Z,6.97
2024-01-05T08:39:29.766Z,6.85
2024-01-05T08:41:56.124Z,6.71
2024-01-05T08:44:22.413Z,6.31
2024-01-05T08:46:48.725Z,6.67
2024-01-05T08:49:15.091Z,6.85
2024-01-05T08:51:41.403Z,6.63
2024-01-05T08:54:07.757Z,6.53
2024-01-05T08:56:34.074Z,6.49
2024-01-05T08:59:00.345Z,6.32
2024-01-05T09:01:26.697Z,6.57
2024-01-05T09:03:53.093Z,6.78
2024-01-05T09:06:19.475Z,5.89
2024-01-05T09:08:45.823Z,6.45
2024-01-05T09:11:12.105Z,6.59
2024-01-05T09:13:39.430Z,6.67
2024-01-05T09:16:05.923Z,6.75
2024-01-05T09:18:32.321Z,6.63
2024-01-05T09:20:58.709Z,6.71
2024-01-05T09:23:25.014Z,6.31
2024-01-05T09:25:51.289Z,6.65
2024-01-05T09:28:17.594Z,6.86
2024-01-05T09:30:44.057Z,6.92
2024-01-05T09:33:10.638Z,6.94
2024-01-05T09:35:36.947Z,7.03
2024-01-05T09:38:03.212Z,7.04
2024-01-05T09:40:29.576Z,7.07
2024-01-05T09:42:55.873Z,7.11
2024-01-05T09:45:22.172Z,6.92
2024-01-05T09:47:48.574Z,6.74
2024-01-05T09:50:15.074Z,6.86
2024-01-05T09:52:41.437Z,6.86
2024-01-05T09:55:07.732Z,6.63
2024-01-05T09:57:34.056Z,6.43
2024-01-05T10:00:00.666Z,6.00
2024-01-05T10:02:27.041Z,5.17
2024-01-05T10:04:53.322Z,5.94
2024-01-05T10:07:19.608Z,6.20
2024-01-05T10:09:45.937Z,6.27
2024-01-05T10:12:12.271Z,6.22
2024-01-05T10:14:38.564Z,5.32
2024-01-05T10:17:04.849Z,5.05
2024-01-05T10:19:31.198Z,5.09
2024-01-05T10:21:57.598Z,5.19
2024-01-05T10:24:24.726Z,5.06
2024-01-05T10:26:51.371Z,5.11
2024-01-05T10:29:17.647Z,5.65
2024-01-05T10:31:44.018Z,5.92
2024-01-05T10:34:10.409Z,6.24
2024-01-05T10:36:37.040Z,6.30
2024-01-05T10:39:03.529Z,6.43
2024-01-05T10:41:29.822Z,5.89
2024-01-05T10:43:56.141Z,6.22
2024-01-05T10:46:22.522Z,6.48
2024-01-05T10:48:48.980Z,6.67
2024-01-05T10:51:15.493Z,6.73
2024-01-05T10:53:41.799Z,6.66
2024-01-05T10:56:08.081Z,6.78
2024-01-05T10:58:34.362Z,6.79
2024-01-05T11:01:00.823Z,6.43
2024-01-05T11:03:27.261Z,5.97
2024-01-05T11:05:53.620Z,6.49
2024-01-05T11:08:19.913Z,6.65
2024-01-05T11:10:46.180Z,6.76
2024-01-05T11:13:12.444Z,6.84
2024-01-05T11:15:38.888Z,6.60
2024-01-05T11:18:05.375Z,6.09
2024-01-05T11:20:31.732Z,6.43
2024-01-05T11:22:58.014Z,5.84
2024-01-05T11:25:24.286Z,5.87
2024-01-05T11:27:50.616Z,5.32
2024-01-05T11:30:17.008Z,5.42
2024-01-05T11:32:43.585Z,5.14
2024-01-05T11:35:10.122Z,5.18
2024-01-05T11:37:36.410Z,5.24
2024-01-05T11:40:02.688Z,5.86
2024-01-05T11:42:29.106Z,5.65
2024-01-05T11:44:55.441Z,5.74
2024-01-05T11:47:21.761Z,5.72
2024-01-05T11:49:48.248Z,5.78
2024-01-05T11:52:14.569Z,6.28
2024-01-05T11:54:40.942Z,6.46
2024-01-05T11:57:07.220Z,6.54
2024-01-05T11:59:33.545Z,6.60
2024-01-05T12:01:59.817Z,6.71
2024-01-05T12:04:26.222Z,6.79
2024-01-05T12:06:52.599Z,6.67
2024-01-05T12:09:18.942Z,6.55
2024-01-05T12:11:45.246Z,5.89
2024-01-05T12:14:11.523Z,5.88
2024-01-05T12:16:37.797Z,5.67
2024-01-05T12:19:04.461Z,6.05
2024-01-05T12:21:30.975Z,6.32
2024-01-05T12:23:57.898Z,6.41
2024-01-05T12:26:24.609Z,6.55
2024-01-05T12:28:51.047Z,6.57
2024-01-05T12:31:17.603Z,6.11
2024-01-05T12:33:44.130Z,6.05
2024-01-05T12:36:11.313Z,6.11
2024-01-05T12:38:37.925Z,6.17
2024-01-05T12:41:04.216Z,6.42
2024-01-05T12:43:30.506Z,6.52
2024-01-05T12:45:56.854Z,6.30
2024-01-05T12:48:23.231Z,6.32
2024-01-05T12:50:49.571Z,5.73
2024-01-05T12:53:15.905Z,5.38
2024-01-05T12:55:42.218Z,5.53
2024-01-05T12:58:08.482Z,5.80
2024-01-05T13:00:34.815Z,5.94
2024-01-05T13:03:01.157Z,5.72
2024-01-05T13:05:27.443Z,5.64
2024-01-05T13:07:53.746Z,5.82
2024-01-05T13:10:20.028Z,6.00
2024-01-05T13:12:46.386Z,5.69
2024-01-05T13:15:12.788Z,5.88
2024-01-05T13:17:39.101Z,5.77
2024-01-05T13:20:05.438Z,6.21
2024-01-05T13:22:34.760Z,6.39
2024-01-05T13:25:02.009Z,6.35
2024-01-05T13:27:28.374Z,6.52
2024-01-05T13:29:54.695Z,6.49
2024-01-05T13:32:21.073Z,5.82
2024-01-05T13:34:47.484Z,5.81
2024-01-05T13:37:13.864Z,5.87
2024-01-05T13:39:40.240Z,5.34
2024-01-05T13:42:06.718Z,5.57
2024-01-05T13:44:33.055Z,5.30
2024-01-05T13:46:59.323Z,5.19
2024-01-05T13:49:27.218Z,5.12
2024-01-05T13:51:53.690Z,5.56
2024-01-05T13:54:19.959Z,5.46
2024-01-05T13:56:46.267Z,5.06
2024-01-05T13:59:12.533Z,4.89
2024-01-05T14:01:41.201Z,4.90
2024-01-05T14:04:07.705Z,4.76
2024-01-05T14:06:34.027Z,4.32
2024-01-05T14:09:00.363Z,4.64
2024-01-05T14:11:26.662Z,4.50
2024-01-05T14:13:52.948Z,4.44
2024-01-05T14:16:19.237Z,4.61
2024-01-05T14:18:45.617Z,4.58
2024-01-05T14:21:11.984Z,4.60
2024-01-05T14:23:38.466Z,4.77
2024-01-05T14:26:04.792Z,5.15
2024-01-05T14:28:31.065Z,4.76
2024-01-05T14:30:57.405Z,4.83
2024-01-05T14:33:23.858Z,4.49
2024-01-05T14:35:50.207Z,4.45
2024-01-05T14:38:16.491Z,4.52
2024-01-05T14:40:42.757Z,4.54
2024-01-05T14:43:09.092Z,4.58
2024-01-05T14:45:35.366Z,4.36
2024-01-05T14:48:02.024Z,4.75
2024-01-05T14:50:28.589Z,4.75
2024-01-05T14:53:03.627Z,5.22
2024-01-05T14:55:34.571Z,5.47
2024-01-05T14:58:00.847Z,5.37
2024-01-05T15:00:27.155Z,5.32
2024-01-05T15:02:53.460Z,5.62
2024-01-05T15:05:19.750Z,5.74
2024-01-05T15:07:46.027Z,5.32
2024-01-05T15:10:12.302Z,5.61
2024-01-05T15:12:38.619Z,5.76
2024-01-05T15:15:07.291Z,5.88
2024-01-05T15:17:34.429Z,5.63
2024-01-05T15:20:00.966Z,5.68
2024-01-05T15:22:27.345Z,5.77
2024-01-05T15:24:53.656Z,5.59
2024-01-05T15:27:20.975Z,5.77
2024-01-05T15:29:47.236Z,5.82
2024-01-05T15:32:13.516Z,5.83
2024-01-05T15:34:39.875Z,5.81
2024-01-05T15:37:06.251Z,5.76
2024-01-05T15:39:32.557Z,5.45
2024-01-05T15:41:58.845Z,5.50
2024-01-05T15:44:26.844Z,5.62
2024-01-05T15:46:53.173Z,5.68
2024-01-05T15:49:19.521Z,5.64
2024-01-05T15:51:45.930Z,5.33
2024-01-05T15:54:12.414Z,5.60
2024-01-05T15:56:38.744Z,5.69
2024-01-05T15:59:05.023Z,5.74
2024-01-05T16:01:31.348Z,5.65
2024-01-05T16:03:57.835Z,5.48
2024-01-05T16:06:24.182Z,5.22
2024-01-05T16:08:50.464Z,5.25
2024-01-05T16:11:16.739Z,5.18
2024-01-05T16:13:43.006Z,5.16
2024-01-05T16:16:09.269Z,5.40
2024-01-05T16:18:35.673Z,5.46
2024-01-05T16:21:03.186Z,5.53
2024-01-05T16:23:29.474Z,5.56
2024-01-05T16:25:55.771Z,5.48
2024-01-05T16:28:22.049Z,5.46
2024-01-05T16:30:48.395Z,5.51
2024-01-05T16:33:14.889Z,5.58
2024-01-05T16:35:41.326Z,4.95
2024-01-05T16:38:07.596Z,5.29
2024-01-05T16:40:33.907Z,5.34
2024-01-05T16:43:00.186Z,5.35
2024-01-05T16:45:26.483Z,5.41
2024-01-05T16:47:52.852Z,5.38
2024-01-05T16:50:19.191Z,5.30
2024-01-05T16:52:45.465Z,5.35
2024-01-05T16:55:11.739Z,5.39
2024-01-05T16:57:38.153Z,5.39
2024-01-05T17:00:04.532Z,5.41
2024-01-05T17:02:30.866Z,5.46
2024-01-05T17:04:57.162Z,5.36
2024-01-05T17:07:23.453Z,5.14
2024-01-05T17:09:49.815Z,5.17
2024-01-05T17:12:16.098Z,4.88
2024-01-05T17:14:42.406Z,5.12
2024-01-05T17:17:08.686Z,5.03
2024-01-05T17:19:35.129Z,5.14
2024-01-05T17:22:01.540Z,5.17
2024-01-05T17:24:27.841Z,5.26
2024-01-05T17:26:54.145Z,5.37
2024-01-05T17:29:20.497Z,5.48
2024-01-05T17:31:46.855Z,5.49
2024-01-05T17:34:13.240Z,5.52
2024-01-05T17:36:39.605Z,5.50
2024-01-05T17:39:05.902Z,5.48
2024-01-05T17:41:32.196Z,5.37
2024-01-05T17:43:58.521Z,4.94
2024-01-05T17:46:24.798Z,4.66
2024-01-05T17:48:51.171Z,4.31
2024-01-05T17:51:17.531Z,4.79
2024-01-05T17:53:43.831Z,5.09
2024-01-05T17:56:10.135Z,5.02
2024-01-05T17:58:36.423Z,5.02
2024-01-05T18:01:04.204Z,5.18
2024-01-05T18:03:32.066Z,5.22
2024-01-05T18:05:58.404Z,5.29
2024-01-05T18:08:24.701Z,5.31
2024-01-05T18:10:50.971Z,5.35
2024-01-05T18:13:17.258Z,5.25
2024-01-05T18:15:43.542Z,5.28
2024-01-05T18:18:10.035Z,5.28
2024-01-05T18:20:36.433Z,5.34
2024-01-05T18:23:02.717Z,5.26
2024-01-05T18:25:31.232Z,5.24
2024-01-05T18:27:59.004Z,5.30
2024-01-05T18:30:26.374Z,5.26
2024-01-05T18:32:52.764Z,5.24
2024-01-05T18:35:19.097Z,5.21
2024-01-05T18:37:45.394Z,5.33
2024-01-05T18:40:11.693Z,5.33
2024-01-05T18:42:38.012Z,5.33
2024-01-05T18:45:04.408Z,5.44
2024-01-05T18:47:30.727Z,5.42
2024-01-05T18:49:57.157Z,5.42
2024-01-05T18:52:23.532Z,5.16
2024-01-05T18:54:49.944Z,5.35
2024-01-05T18:57:16.293Z,5.33
2024-01-05T18:59:42.611Z,5.35
2024-01-05T19:02:08.888Z,5.37
2024-01-05T19:04:35.298Z,5.05
2024-01-05T19:07:01.732Z,4.51
2024-01-05T19:09:28.090Z,4.95
2024-01-05T19:11:54.387Z,5.16
2024-01-05T19:14:20.721Z,5.18
2024-01-05T19:16:47.002Z,5.17
2024-01-05T19:19:15.702Z,4.94
2024-01-05T19:21:49.587Z,5.09
2024-01-05T19:24:22.006Z,5.23
2024-01-05T19:26:48.296Z,5.16
2024-01-05T19:29:14.595Z,5.11
2024-01-05T19:31:40.933Z,5.09
2024-01-05T19:34:07.431Z,5.13
2024-01-05T19:36:33.777Z,5.19
2024-01-05T19:39:00.057Z,5.16
2024-01-05T19:41:26.376Z,5.22
2024-01-05T19:43:52.674Z,4.77
2024-01-05T19:46:18.956Z,4.61
2024-01-05T19:48:45.801Z,4.73
2024-01-05T19:51:12.221Z,4.91
2024-01-05T19:53:38.533Z,5.06
2024-01-05T19:56:04.814Z,5.09
2024-01-05T19:58:31.088Z,5.20
2024-01-05T20:00:57.438Z,5.13
2024-01-05T20:03:24.203Z,5.24
2024-01-05T20:05:50.597Z,4.99
2024-01-05T20:08:16.886Z,5.04
2024-01-05T20:10:43.348Z,5.10
2024-01-05T20:13:09.702Z,5.23
2024-01-05T20:15:36.020Z,5.17
2024-01-05T20:18:02.411Z,5.21
2024-01-05T20:20:28.797Z,5.17
2024-01-05T20:22:55.062Z,4.96
2024-01-05T20:25:22.206Z,4.77
2024-01-05T20:27:48.946Z,4.80
2024-01-05T20:30:15.500Z,4.98
2024-01-05T20:32:42.026Z,5.06
2024-01-05T20:35:08.365Z,5.10
2024-01-05T20:37:34.663Z,5.00
2024-01-05T20:40:00.922Z,5.01
2024-01-05T20:42:27.286Z,4.65
2024-01-05T20:44:53.569Z,4.79
2024-01-05T20:47:19.840Z,4.93
2024-01-05T20:49:46.270Z,4.93
2024-01-05T20:52:12.614Z,4.90
2024-01-05T20:54:38.905Z,4.94
2024-01-05T20:57:05.276Z,4.77
2024-01-05T20:59:31.594Z,4.93
2024-01-05T21:01:57.861Z,4.96
2024-01-05T21:04:24.193Z,4.46
2024-01-05T21:06:50.570Z,4.76
2024-01-05T21:09:16.942Z,4.81
2024-01-05T21:11:43.276Z,4.76
2024-01-05T21:14:09.550Z,4.39
2024-01-05T21:16:35.826Z,4.07
2024-01-05T21:19:02.209Z,4.46
2024-01-05T21:21:28.725Z,4.59
2024-01-05T21:23:55.108Z,4.69
2024-01-05T21:26:21.377Z,4.86
2024-01-05T21:28:47.652Z,4.94
2024-01-05T21:31:14.044Z,4.92
2024-01-05T21:33:40.473Z,4.91
2024-01-05T21:36:06.804Z,4.98
2024-01-05T21:38:33.129Z,4.85
2024-01-05T21:40:59.416Z,4.80
2024-01-05T21:43:25.771Z,4.86
2024-01-05T21:45:52.129Z,4.89
2024-01-05T21:48:18.615Z,4.96
2024-01-05T21:50:45.012Z,4.95
2024-01-05T21:53:11.338Z,5.00
2024-01-05T21:55:37.615Z,4.93
2024-01-05T21:58:03.941Z,4.95
2024-01-05T22:00:30.312Z,4.92
2024-01-05T22:02:56.699Z,4.91
2024-01-05T22:05:23.070Z,4.81
2024-01-05T22:07:49.366Z,4.81
2024-01-05T22:10:15.701Z,4.87
2024-01-05T22:12:42.023Z,4.92
2024-01-05T22:15:08.377Z,4.92
2024-01-05T22:17:34.801Z,4.94
2024-01-05T22:20:01.281Z,4.98
2024-01-05T22:22:27.638Z,5.01
2024-01-05T22:24:53.982Z,4.60
2024-01-05T22:27:20.317Z,4.33
2024-01-05T22:29:46.661Z,4.08
2024-01-05T22:32:12.952Z,4.27
2024-01-05T22:34:39.564Z,4.39
2024-01-05T22:37:05.899Z,4.25
2024-01-05T22:39:32.208Z,4.34
2024-01-05T22:41:58.485Z,4.50
2024-01-05T22:44:24.778Z,4.59
2024-01-05T22:46:51.079Z,4.59
2024-01-05T22:49:17.513Z,4.72
2024-01-05T22:51:43.991Z,4.75
2024-01-05T22:54:10.285Z,4.35
2024-01-05T22:56:36.595Z,4.54
2024-01-05T22:59:02.871Z,4.47
2024-01-05T23:01:29.173Z,4.57
2024-01-05T23:03:55.546Z,4.63
2024-01-05T23:06:22.023Z,4.62
2024-01-05T23:08:50.257Z,4.64
2024-01-05T23:11:16.540Z,4.62
2024-01-05T23:13:42.828Z,4.65
2024-01-05T23:16:09.305Z,4.68
2024-01-05T23:18:35.877Z,4.77
2024-01-05T23:21:02.225Z,4.80
2024-01-05T23:23:28.499Z,4.58
2024-01-05T23:25:54.775Z,4.72
2024-01-05T23:28:21.066Z,4.73
2024-01-05T23:30:47.429Z,4.79
2024-01-05T23:33:13.892Z,4.79
2024-01-05T23:35:40.272Z,4.85
2024-01-05T23:38:06.552Z,4.82
2024-01-05T23:40:32.859Z,4.81
2024-01-05T23:42:59.142Z,4.82
2024-01-05T23:45:25.445Z,4.88
2024-01-05T23:47:51.841Z,4.85
2024-01-05T23:50:18.171Z,4.80
2024-01-05T23:52:45.085Z,4.84
2024-01-05T23:55:11.346Z,4.79
2024-01-05T23:57:37.638Z,4.63
